Time;durP1;ratioP1;P1;durP2;ratioP2;P2;SDS_P1;SDS_P2;PMS_P1;PMS_P2;Temp;Humidity;BMP_temperature;BMP_pressure;BME280_temperature;BME280_humidity;BME280_pressure;Samples;Min_cycle;Max_cycle;Signal;HPM_P1;HPM_P2
2022/01/30 00:00:13;;;;;;;21.20;4.90;;;7.00;99.90;;;;;;4965908;28;20425;-63
2022/01/30 00:02:40;;;;;;;22.70;6.03;;;6.90;99.90;;;;;;4956562;28;20306;-62
2022/01/30 00:05:07;;;;;;;20.70;4.65;;;7.00;99.90;;;;;;4951383;28;20434;-63
2022/01/30 00:07:33;;;;;;;20.40;4.57;;;6.90;99.90;;;;;;4958512;28;20199;-63
2022/01/30 00:10:00;;;;;;;21.15;4.43;;;6.90;99.90;;;;;;4966540;28;20043;-63
2022/01/30 00:12:45;;;;;;;24.38;4.38;;;6.90;99.90;;;;;;4962672;28;20065;-63
2022/01/30 00:15:12;;;;;;;24.25;4.53;;;6.90;99.90;;;;;;4953698;28;20051;-63
2022/01/30 00:17:45;;;;;;;24.33;4.88;;;6.90;99.90;;;;;;4950342;28;20462;-63
2022/01/30 00:20:19;;;;;;;29.15;4.90;;;6.90;99.90;;;;;;4962680;28;20426;-63
2022/01/30 00:22:50;;;;;;;22.60;4.15;;;6.90;99.90;;;;;;4954638;28;20044;-63
2022/01/30 00:25:25;;;;;;;24.88;4.15;;;6.90;99.90;;;;;;4944727;28;20370;-63
2022/01/30 00:28:05;;;;;;;27.13;6.05;;;6.90;99.90;;;;;;5009962;28;20048;-63
2022/01/30 00:30:34;;;;;;;24.05;4.45;;;6.90;99.90;;;;;;5079969;28;20495;-48
2022/01/30 00:33:02;;;;;;;22.48;5.20;;;6.90;99.90;;;;;;4972396;28;20058;-50
2022/01/30 00:35:28;;;;;;;18.33;4.25;;;6.80;99.90;;;;;;4975368;28;20129;-47
2022/01/30 00:37:55;;;;;;;25.20;5.07;;;6.80;99.90;;;;;;4981274;28;20409;-48
2022/01/30 00:40:21;;;;;;;24.35;4.53;;;6.80;99.90;;;;;;4962540;28;20077;-49
2022/01/30 00:42:47;;;;;;;23.80;4.50;;;6.80;99.90;;;;;;4953269;28;20535;-48
2022/01/30 00:45:13;;;;;;;22.75;4.38;;;6.80;99.90;;;;;;4952136;28;20081;-46
2022/01/30 00:47:39;;;;;;;19.45;4.38;;;6.80;99.90;;;;;;4984188;28;20765;-48
2022/01/30 00:50:06;;;;;;;19.13;3.92;;;6.70;99.90;;;;;;4970856;28;20055;-54
2022/01/30 00:52:32;;;;;;;23.60;5.10;;;6.70;99.90;;;;;;4946388;28;20046;-49
2022/01/30 00:54:58;;;;;;;29.38;5.45;;;6.70;99.90;;;;;;5042082;28;20049;-48
2022/01/30 00:57:25;;;;;;;28.80;5.05;;;6.70;99.90;;;;;;4968897;28;20047;-48
2022/01/30 00:59:51;;;;;;;28.50;5.43;;;6.80;99.90;;;;;;4928791;28;20051;-48
2022/01/30 01:02:17;;;;;;;30.98;6.03;;;6.80;99.90;;;;;;4957114;28;20047;-50
2022/01/30 01:04:45;;;;;;;23.85;5.88;;;6.80;99.90;;;;;;4982589;28;20069;-48
2022/01/30 01:07:29;;;;;;;20.92;4.60;;;6.70;99.90;;;;;;4940697;28;20414;-49
2022/01/30 01:10:24;;;;;;;20.42;3.75;;;6.50;99.90;;;;;;4969895;28;20197;-49
2022/01/30 01:23:35;;;;;;;17.45;4.20;;;5.70;99.90;;;;;;4944128;28;20081;-48
2022/01/30 01:26:02;;;;;;;21.20;4.40;;;5.60;99.90;;;;;;4943605;28;20421;-50
2022/01/30 01:28:28;;;;;;;19.98;4.57;;;5.60;99.90;;;;;;4935229;28;20215;-52
2022/01/30 01:30:55;;;;;;;22.80;4.63;;;5.60;99.90;;;;;;4947613;28;20055;-50
2022/01/30 01:33:24;;;;;;;19.88;5.18;;;5.60;99.90;;;;;;4965694;28;20396;-51
2022/01/30 01:35:50;;;;;;;23.42;4.63;;;5.60;99.90;;;;;;4951206;28;20566;-49
2022/01/30 01:38:16;;;;;;;27.30;4.93;;;5.70;99.90;;;;;;4934508;28;20051;-63
2022/01/30 01:40:51;;;;;;;35.75;6.07;;;5.60;99.90;;;;;;4943281;28;20070;-63
2022/01/30 01:43:21;;;;;;;27.58;5.05;;;5.60;99.90;;;;;;4961281;28;20082;-63
2022/01/30 01:45:50;;;;;;;24.33;4.90;;;5.70;99.90;;;;;;4940615;28;20429;-63
2022/01/30 01:48:16;;;;;;;29.08;5.68;;;5.70;99.90;;;;;;4958307;28;20121;-63
2022/01/30 01:50:51;;;;;;;22.02;4.57;;;5.70;99.90;;;;;;5002884;28;20086;-63
2022/01/30 01:53:19;;;;;;;24.35;5.25;;;5.70;99.90;;;;;;4936383;28;20138;-63
2022/01/30 01:55:45;;;;;;;22.92;4.60;;;5.70;99.90;;;;;;4954659;28;20061;-63
2022/01/30 01:58:24;;;;;;;19.52;5.10;;;5.70;99.90;;;;;;4958440;28;20193;-63
2022/01/30 02:01:09;;;;;;;20.13;4.68;;;5.60;99.90;;;;;;4958878;28;20054;-63
2022/01/30 02:03:40;;;;;;;25.13;5.22;;;5.60;99.90;;;;;;4967971;28;20780;-63
2022/01/30 02:06:11;;;;;;;22.83;4.28;;;5.60;99.90;;;;;;4973168;28;20141;-63
2022/01/30 02:08:48;;;;;;;20.35;4.70;;;5.70;99.90;;;;;;4971188;28;20058;-64
2022/01/30 02:11:27;;;;;;;24.60;4.82;;;5.70;99.90;;;;;;4951996;28;20048;-63
2022/01/30 02:14:16;;;;;;;22.10;3.83;;;5.80;99.90;;;;;;4958898;28;20456;-63
2022/01/30 02:27:55;;;;;;;27.30;5.68;;;5.70;99.90;;;;;;5058519;28;20056;-63
2022/01/30 02:30:23;;;;;;;27.25;5.70;;;5.70;99.90;;;;;;5045808;28;20052;-48
2022/01/30 02:32:50;;;;;;;25.30;5.40;;;5.80;99.90;;;;;;5045989;28;20054;-47
2022/01/30 02:35:16;;;;;;;18.92;4.93;;;5.80;99.90;;;;;;5016075;28;20054;-51
2022/01/30 02:37:42;;;;;;;28.45;5.47;;;5.90;99.90;;;;;;5034858;28;20342;-62
2022/01/30 02:40:12;;;;;;;23.20;5.28;;;5.90;99.90;;;;;;4959279;28;20074;-63
2022/01/30 02:42:43;;;;;;;27.02;5.55;;;5.90;99.90;;;;;;4960768;28;20055;-51
2022/01/30 02:45:12;;;;;;;26.65;5.82;;;6.00;99.90;;;;;;4962147;28;20587;-63
2022/01/30 02:47:52;;;;;;;22.75;5.72;;;6.00;99.90;;;;;;4969494;28;20047;-63
2022/01/30 02:50:35;;;;;;;23.85;6.32;;;6.10;99.90;;;;;;4944931;28;20051;-48
2022/01/30 02:53:05;;;;;;;26.23;6.20;;;6.10;99.90;;;;;;4959036;28;20124;-48
2022/01/30 02:55:32;;;;;;;30.40;6.80;;;6.10;99.90;;;;;;4973932;28;20046;-49
2022/01/30 02:57:58;;;;;;;23.83;5.22;;;6.20;99.90;;;;;;4949782;28;20059;-63
2022/01/30 03:00:24;;;;;;;27.20;6.22;;;6.20;99.90;;;;;;4935467;28;20047;-63
2022/01/30 03:02:50;;;;;;;27.92;5.40;;;6.30;99.90;;;;;;4930241;29;20437;-62
2022/01/30 03:05:17;;;;;;;32.58;5.60;;;6.20;99.90;;;;;;4959823;28;20071;-48
2022/01/30 03:07:43;;;;;;;26.60;5.82;;;6.20;99.90;;;;;;4964537;28;20074;-47
2022/01/30 03:10:11;;;;;;;35.47;5.85;;;6.20;99.90;;;;;;5023388;28;20148;-63
2022/01/30 03:12:37;;;;;;;22.80;5.45;;;6.20;99.90;;;;;;4947227;28;20059;-63
2022/01/30 03:15:05;;;;;;;23.60;5.95;;;6.20;99.90;;;;;;4919719;29;20201;-48
2022/01/30 03:17:31;;;;;;;30.63;5.55;;;6.20;99.90;;;;;;4985138;28;20048;-63
2022/01/30 03:19:57;;;;;;;20.58;5.75;;;6.20;99.90;;;;;;4966801;28;20043;-63
2022/01/30 03:22:25;;;;;;;24.50;5.35;;;6.20;99.90;;;;;;4953333;28;20047;-63
2022/01/30 03:24:51;;;;;;;27.60;5.28;;;6.20;99.90;;;;;;4978512;28;20051;-63
2022/01/30 03:27:28;;;;;;;22.88;3.97;;;6.10;99.90;;;;;;4996866;28;20053;-61
2022/01/30 03:30:04;;;;;;;21.98;4.28;;;6.10;99.90;;;;;;4975447;28;20082;-63
2022/01/30 03:32:49;;;;;;;29.77;5.32;;;6.10;99.90;;;;;;4969954;28;20085;-63
2022/01/30 03:35:15;;;;;;;23.58;5.18;;;6.20;99.90;;;;;;4940226;28;20063;-63
2022/01/30 03:37:41;;;;;;;29.48;5.65;;;6.10;99.90;;;;;;4980945;28;20059;-62
2022/01/30 03:40:08;;;;;;;28.48;6.05;;;6.10;99.90;;;;;;4960979;28;20050;-62
2022/01/30 03:42:34;;;;;;;25.13;6.32;;;6.00;99.90;;;;;;4940578;28;20086;-63
2022/01/30 03:45:01;;;;;;;29.42;6.95;;;5.90;99.90;;;;;;4954393;28;20090;-63
2022/01/30 03:47:27;;;;;;;29.52;6.25;;;5.90;99.90;;;;;;4952562;28;20947;-63
2022/01/30 03:49:55;;;;;;;21.00;6.40;;;5.80;99.90;;;;;;4947900;28;20097;-62
2022/01/30 03:52:22;;;;;;;26.48;6.50;;;5.80;99.90;;;;;;4944753;28;20942;-63
2022/01/30 03:54:48;;;;;;;32.25;6.10;;;5.80;99.90;;;;;;4941260;28;20143;-63
2022/01/30 03:57:14;;;;;;;35.83;6.47;;;5.80;99.90;;;;;;4937033;28;20116;-63
2022/01/30 03:59:43;;;;;;;30.92;6.65;;;5.80;99.90;;;;;;4962273;28;20050;-63
2022/01/30 04:02:10;;;;;;;33.53;7.35;;;6.00;99.90;;;;;;4951858;28;20051;-63
2022/01/30 04:04:37;;;;;;;34.15;7.30;;;6.00;99.90;;;;;;4953135;28;20495;-62
2022/01/30 04:07:03;;;;;;;42.63;6.85;;;6.00;99.90;;;;;;4946520;28;20059;-63
2022/01/30 04:09:53;;;;;;;33.60;6.72;;;6.00;99.90;;;;;;4941838;28;20289;-63
2022/01/30 04:12:34;;;;;;;27.25;5.40;;;6.00;99.90;;;;;;4936176;28;20043;-63
2022/01/30 04:15:24;;;;;;;35.70;6.22;;;6.10;99.90;;;;;;4952733;28;20065;-63
2022/01/30 04:18:03;;;;;;;30.27;6.03;;;6.10;99.90;;;;;;4957409;28;20047;-63
2022/01/30 04:20:32;;;;;;;33.88;6.53;;;6.20;99.90;;;;;;4951997;28;20047;-63
2022/01/30 04:23:17;;;;;;;35.58;7.88;;;6.10;99.90;;;;;;4932679;28;20103;-63
2022/01/30 04:25:58;;;;;;;31.00;7.50;;;6.20;99.90;;;;;;4952537;28;20047;-63
2022/01/30 04:28:43;;;;;;;47.88;7.63;;;6.10;99.90;;;;;;4952201;28;20744;-63
2022/01/30 04:31:28;;;;;;;37.80;6.63;;;6.10;99.90;;;;;;4960308;28;20530;-63
2022/01/30 04:34:26;;;;;;;28.58;7.20;;;6.10;99.90;;;;;;4953325;28;20449;-62
2022/01/30 04:37:47;;;;;;;32.63;7.25;;;6.20;99.90;;;;;;4977983;28;20405;-62
2022/01/30 04:40:48;;;;;;;34.67;7.32;;;6.10;99.90;;;;;;4955280;28;20149;-62
2022/01/30 04:58:47;;;;;;;33.88;6.47;;;5.60;99.90;;;;;;4954621;28;20081;-63
2022/01/30 05:04:14;;;;;;;32.60;7.60;;;5.40;99.90;;;;;;4966867;28;20073;-63
2022/01/30 05:10:20;;;;;;;30.63;7.05;;;5.40;99.90;;;;;;4996035;28;20057;-63
2022/01/30 05:13:11;;;;;;;37.17;7.07;;;5.40;99.90;;;;;;4962286;28;20051;-63
2022/01/30 05:15:55;;;;;;;35.75;9.23;;;5.40;99.90;;;;;;4958520;28;20406;-63
2022/01/30 05:18:56;;;;;;;44.63;9.30;;;5.40;99.90;;;;;;4940323;28;20074;-63
2022/01/30 05:21:39;;;;;;;42.35;9.63;;;5.40;99.90;;;;;;4963215;28;20150;-50
2022/01/30 05:24:16;;;;;;;47.70;9.27;;;5.40;99.90;;;;;;4943499;28;20058;-52
2022/01/30 05:26:49;;;;;;;40.22;9.80;;;5.40;99.90;;;;;;4975213;28;20044;-50
2022/01/30 05:29:38;;;;;;;48.28;10.02;;;5.40;99.90;;;;;;4931422;28;20043;-50
2022/01/30 05:32:28;;;;;;;46.25;10.20;;;5.30;99.90;;;;;;4943078;28;20129;-48
2022/01/30 05:35:15;;;;;;;42.15;8.48;;;5.30;99.90;;;;;;4982425;28;20506;-49
2022/01/30 05:38:18;;;;;;;44.55;9.27;;;5.30;99.90;;;;;;4989561;28;20171;-63
2022/01/30 05:40:59;;;;;;;38.65;9.57;;;5.40;99.90;;;;;;4957032;28;20058;-50
2022/01/30 05:43:49;;;;;;;55.55;9.52;;;5.40;99.90;;;;;;4964320;28;20134;-63
2022/01/30 05:46:42;;;;;;;39.92;8.55;;;5.40;99.90;;;;;;4959547;28;20120;-47
2022/01/30 05:49:27;;;;;;;49.63;9.73;;;5.40;99.90;;;;;;4958358;28;20567;-62
2022/01/30 05:52:28;;;;;;;38.67;8.45;;;5.30;99.90;;;;;;4938771;28;20055;-63
2022/01/30 05:55:08;;;;;;;40.92;8.80;;;5.30;99.90;;;;;;4976579;28;20058;-63
2022/01/30 05:57:34;;;;;;;36.65;8.82;;;5.30;99.90;;;;;;4975165;28;20046;-63
2022/01/30 06:00:03;;;;;;;46.97;9.18;;;5.30;99.90;;;;;;4959674;28;20473;-62
2022/01/30 06:02:47;;;;;;;40.88;8.93;;;5.20;99.90;;;;;;4956167;28;20633;-49
2022/01/30 06:05:16;;;;;;;39.75;8.75;;;5.30;99.90;;;;;;4941986;28;20093;-63
2022/01/30 06:07:49;;;;;;;45.17;9.30;;;5.20;99.90;;;;;;4954788;28;20044;-63
2022/01/30 06:10:16;;;;;;;43.15;9.77;;;5.20;99.90;;;;;;4963492;28;20622;-47
2022/01/30 06:12:42;;;;;;;45.35;8.98;;;5.20;99.90;;;;;;4915866;28;20122;-48
2022/01/30 06:15:09;;;;;;;39.33;8.27;;;5.20;99.90;;;;;;4960848;28;20477;-50
2022/01/30 06:17:35;;;;;;;39.40;8.13;;;5.20;99.90;;;;;;4959917;28;20053;-63
2022/01/30 06:20:05;;;;;;;41.20;9.15;;;5.20;99.90;;;;;;4930238;28;20055;-63
2022/01/30 06:22:49;;;;;;;44.15;9.80;;;5.20;99.90;;;;;;4944787;28;20510;-63
2022/01/30 06:25:34;;;;;;;34.80;7.13;;;5.20;99.90;;;;;;4975736;28;20043;-63
2022/01/30 06:28:18;;;;;;;43.15;9.20;;;5.10;99.90;;;;;;4958481;28;20051;-63
2022/01/30 06:31:03;;;;;;;34.75;9.23;;;5.10;99.90;;;;;;4959310;28;20054;-48
2022/01/30 06:33:52;;;;;;;41.85;10.30;;;5.10;99.90;;;;;;5007380;28;20552;-63
2022/01/30 06:36:37;;;;;;;38.40;8.27;;;5.10;99.90;;;;;;4962127;28;20467;-63
2022/01/30 06:39:39;;;;;;;44.03;8.60;;;5.20;99.90;;;;;;4999167;28;20054;-63
2022/01/30 06:42:14;;;;;;;35.97;8.25;;;5.20;99.90;;;;;;4950200;28;20055;-48
2022/01/30 06:44:59;;;;;;;43.15;9.35;;;5.30;99.90;;;;;;4971189;28;20054;-50
2022/01/30 06:47:51;;;;;;;;;;;5.40;99.90;;;;;;4990815;28;20050;-48
2022/01/30 06:50:36;;;;;;;37.67;8.75;;;5.50;99.90;;;;;;4974662;28;19922;-50
2022/01/30 06:53:23;;;;;;;29.70;7.63;;;5.50;99.90;;;;;;4971199;28;20054;-50
2022/01/30 06:56:07;;;;;;;43.42;8.73;;;5.60;99.90;;;;;;4962066;28;20046;-50
2022/01/30 06:59:05;;;;;;;44.65;8.82;;;5.50;99.90;;;;;;4989172;28;20059;-63
2022/01/30 07:01:52;;;;;;;40.15;8.05;;;5.50;99.90;;;;;;4962104;28;20081;-57
2022/01/30 07:04:37;;;;;;;42.67;8.90;;;5.60;99.90;;;;;;4957607;28;20043;-62
2022/01/30 07:07:21;;;;;;;35.65;8.90;;;5.60;99.90;;;;;;4965883;28;20469;-62
2022/01/30 07:09:47;;;;;;;45.05;9.32;;;5.70;99.90;;;;;;4988260;28;20053;-62
2022/01/30 07:12:13;;;;;;;39.90;8.70;;;5.70;99.90;;;;;;4961140;28;20057;-63
2022/01/30 07:14:39;;;;;;;43.55;9.18;;;5.70;99.90;;;;;;5061718;28;20067;-62
2022/01/30 07:17:06;;;;;;;40.75;8.70;;;5.70;99.90;;;;;;5066709;28;20106;-62
2022/01/30 07:19:32;;;;;;;40.58;9.15;;;5.70;99.90;;;;;;5064857;28;20075;-62
2022/01/30 07:21:58;;;;;;;44.22;9.52;;;5.70;99.90;;;;;;5014667;28;20807;-62
2022/01/30 07:24:24;;;;;;;36.35;8.23;;;5.70;99.90;;;;;;5000071;28;20046;-63
2022/01/30 07:26:50;;;;;;;36.58;8.93;;;5.70;99.90;;;;;;5058087;28;20081;-62
2022/01/30 07:29:16;;;;;;;38.03;9.27;;;5.70;99.90;;;;;;4981882;28;20398;-63
2022/01/30 07:31:42;;;;;;;34.67;8.02;;;5.80;99.90;;;;;;4947568;28;20044;-62
2022/01/30 07:34:08;;;;;;;33.75;7.70;;;5.80;99.90;;;;;;5006798;28;20055;-62
2022/01/30 07:36:37;;;;;;;37.42;8.73;;;5.80;99.90;;;;;;4987939;28;20054;-62
2022/01/30 07:39:06;;;;;;;40.60;8.43;;;5.80;99.90;;;;;;4955353;28;20059;-63
2022/01/30 07:41:33;;;;;;;47.58;8.63;;;5.80;99.90;;;;;;4964435;28;20046;-62
2022/01/30 07:44:03;;;;;;;47.75;10.45;;;5.90;99.90;;;;;;4945474;28;20055;-62
2022/01/30 07:46:29;;;;;;;42.90;9.10;;;5.90;99.90;;;;;;4985771;28;20440;-62
2022/01/30 07:48:56;;;;;;;46.97;10.63;;;5.90;99.90;;;;;;5031602;28;20076;-62
2022/01/30 07:51:22;;;;;;;40.80;8.68;;;5.90;99.90;;;;;;5066278;28;20088;-62
2022/01/30 07:53:48;;;;;;;50.33;9.38;;;5.90;99.90;;;;;;5063422;28;20040;-62
2022/01/30 07:56:14;;;;;;;36.65;9.27;;;6.00;99.90;;;;;;4986688;28;20501;-62
2022/01/30 07:58:40;;;;;;;38.45;9.20;;;6.00;99.90;;;;;;4984423;28;20512;-62
2022/01/30 08:01:07;;;;;;;49.60;10.40;;;6.00;99.90;;;;;;5010644;28;20047;-62
2022/01/30 08:03:33;;;;;;;46.13;9.93;;;6.10;99.90;;;;;;5007379;28;20071;-62
2022/01/30 08:05:59;;;;;;;43.15;8.82;;;6.10;99.90;;;;;;5005812;28;20091;-62
2022/01/30 08:08:25;;;;;;;47.03;9.35;;;6.10;99.90;;;;;;4990775;28;20494;-62
2022/01/30 08:10:51;;;;;;;33.28;8.70;;;6.10;99.90;;;;;;5021135;28;20109;-62
2022/01/30 08:13:17;;;;;;;51.17;14.90;;;6.10;99.90;;;;;;5003520;28;20074;-47
2022/01/30 08:15:45;;;;;;;42.53;15.18;;;6.00;99.90;;;;;;5021876;28;20070;-49
2022/01/30 08:18:11;;;;;;;41.53;9.90;;;6.10;99.90;;;;;;5015084;28;20053;-50
2022/01/30 08:20:37;;;;;;;44.85;9.63;;;6.10;99.90;;;;;;5003030;28;20051;-47
2022/01/30 08:23:11;;;;;;;48.85;10.75;;;6.10;99.90;;;;;;4960265;28;20116;-53
2022/01/30 08:25:38;;;;;;;41.55;9.35;;;6.10;99.90;;;;;;4964195;28;20051;-48
2022/01/30 08:28:05;;;;;;;43.75;10.65;;;6.10;99.90;;;;;;4960785;28;20137;-48
2022/01/30 08:30:32;;;;;;;46.17;10.15;;;6.10;99.90;;;;;;4988782;28;20059;-63
2022/01/30 08:32:59;;;;;;;41.85;9.80;;;6.10;99.90;;;;;;5008347;28;20086;-63
2022/01/30 08:35:27;;;;;;;43.53;9.10;;;6.10;99.90;;;;;;4957353;28;20094;-63
2022/01/30 08:37:53;;;;;;;44.50;9.50;;;6.20;99.90;;;;;;4948838;28;20053;-63
2022/01/30 08:40:21;;;;;;;42.35;9.88;;;6.30;99.90;;;;;;4970398;28;20047;-48
2022/01/30 08:42:49;;;;;;;43.60;8.82;;;6.50;99.90;;;;;;4961037;28;20108;-49
2022/01/30 08:45:17;;;;;;;37.90;10.05;;;6.60;99.90;;;;;;4963594;28;20050;-51
2022/01/30 08:47:46;;;;;;;35.88;7.95;;;6.60;99.90;;;;;;4962669;28;20078;-51
2022/01/30 08:50:14;;;;;;;38.10;7.80;;;6.50;99.90;;;;;;4993535;28;20506;-50
2022/01/30 08:52:42;;;;;;;33.22;9.07;;;6.50;99.90;;;;;;5033514;28;20054;-51
2022/01/30 08:55:09;;;;;;;38.42;8.27;;;6.50;99.90;;;;;;4943013;28;20126;-51
2022/01/30 08:57:35;;;;;;;33.65;8.52;;;6.50;99.90;;;;;;4926732;28;20058;-51
2022/01/30 09:00:05;;;;;;;38.50;8.48;;;6.50;99.90;;;;;;4942493;28;20534;-51
2022/01/30 09:02:31;;;;;;;34.78;7.28;;;6.60;99.90;;;;;;4987298;28;20079;-52
2022/01/30 09:04:57;;;;;;;34.65;8.68;;;6.60;99.90;;;;;;5064579;28;20481;-50
2022/01/30 09:07:24;;;;;;;35.28;10.75;;;6.50;99.90;;;;;;5003241;28;20151;-47
2022/01/30 09:09:50;;;;;;;30.20;8.07;;;6.50;99.90;;;;;;4958514;28;20051;-52
2022/01/30 09:12:16;;;;;;;37.20;10.68;;;6.70;99.90;;;;;;4995513;28;20406;-52
2022/01/30 09:14:43;;;;;;;38.50;9.43;;;7.20;99.90;;;;;;5064134;28;20052;-62
2022/01/30 09:17:15;;;;;;;43.83;9.50;;;7.70;99.90;;;;;;5063846;28;20060;-63
2022/01/30 09:19:42;;;;;;;;;;;7.90;99.90;;;;;;5047319;28;20117;-62
2022/01/30 09:22:09;;;;;;;38.08;7.85;;;7.70;99.90;;;;;;5051846;28;19972;-63
2022/01/30 09:24:36;;;;;;;31.23;8.50;;;7.60;99.90;;;;;;5046273;28;20056;-63
2022/01/30 09:27:03;;;;;;;36.20;10.27;;;7.40;99.90;;;;;;5030521;28;20069;-49
2022/01/30 09:29:30;;;;;;;42.00;9.98;;;7.30;99.90;;;;;;4926199;29;20255;-61
2022/01/30 09:31:57;;;;;;;38.05;8.77;;;7.20;99.90;;;;;;4926462;29;20407;-61
2022/01/30 09:34:23;;;;;;;38.00;9.18;;;7.20;99.90;;;;;;4967999;28;20497;-61
2022/01/30 09:36:49;;;;;;;39.00;8.43;;;7.20;99.90;;;;;;5038467;28;20071;-61
2022/01/30 09:39:16;;;;;;;39.47;9.48;;;7.40;99.90;;;;;;5062143;28;20291;-62
2022/01/30 09:41:45;;;;;;;47.78;9.80;;;7.80;99.90;;;;;;5063650;28;20048;-62
2022/01/30 09:44:12;;;;;;;39.38;9.38;;;8.20;99.90;;;;;;5014619;28;20051;-62
2022/01/30 09:46:42;;;;;;;36.50;8.43;;;8.90;99.90;;;;;;4943949;28;20055;-50
2022/01/30 09:49:09;;;;;;;40.90;9.70;;;9.20;99.90;;;;;;4942329;29;20051;-51
2022/01/30 09:51:45;;;;;;;32.75;9.02;;;9.00;99.90;;;;;;4927296;28;20039;-61
2022/01/30 09:54:12;;;;;;;39.28;9.57;;;8.90;99.90;;;;;;4942410;28;20096;-49
2022/01/30 09:56:39;;;;;;;41.30;9.25;;;9.00;99.90;;;;;;4963768;28;20409;-62
2022/01/30 09:59:06;;;;;;;36.55;9.43;;;9.30;94.00;;;;;;4962623;28;20498;-63
2022/01/30 10:01:34;;;;;;;39.50;8.23;;;10.10;99.90;;;;;;4953811;28;20040;-62
2022/01/30 10:04:02;;;;;;;38.58;9.65;;;10.00;87.40;;;;;;4952603;28;20052;-62
2022/01/30 10:06:35;;;;;;;40.75;9.25;;;9.70;80.90;;;;;;4960918;28;20080;-62
2022/01/30 10:09:20;;;;;;;42.38;8.98;;;8.90;81.10;;;;;;4961245;28;20069;-50
2022/01/30 10:11:59;;;;;;;42.22;9.13;;;8.70;99.90;;;;;;4962107;28;20533;-49
2022/01/30 10:14:25;;;;;;;41.70;9.50;;;8.20;99.90;;;;;;4968770;28;20155;-51
2022/01/30 10:16:51;;;;;;;31.15;8.93;;;8.30;99.90;;;;;;4960970;28;20058;-47
2022/01/30 10:19:24;;;;;;;41.03;9.02;;;9.00;99.90;;;;;;4936829;28;20051;-48
2022/01/30 10:22:04;;;;;;;35.75;9.10;;;9.60;99.90;;;;;;4941985;29;20055;-49
2022/01/30 10:24:31;;;;;;;49.75;21.25;;;10.50;99.90;;;;;;4984054;28;20067;-63
2022/01/30 10:27:02;;;;;;;34.92;10.30;;;10.80;95.00;;;;;;5062037;28;20049;-63
2022/01/30 10:29:30;;;;;;;38.40;9.13;;;11.40;76.20;;;;;;5061506;28;20055;-63
2022/01/30 10:32:03;;;;;;;35.83;11.45;;;11.20;70.20;;;;;;5061918;28;20182;-62
2022/01/30 10:34:30;;;;;;;35.67;9.50;;;11.50;65.70;;;;;;5057826;28;20510;-61
2022/01/30 10:37:22;;;;;;;31.48;10.07;;;11.40;66.50;;;;;;4942470;28;20099;-50
2022/01/30 10:40:27;;;;;;;33.25;7.93;;;11.80;61.30;;;;;;4970812;28;20074;-49
2022/01/30 10:42:53;;;;;;;38.95;10.15;;;11.50;58.10;;;;;;5005324;28;20044;-61
2022/01/30 10:45:29;;;;;;;32.10;8.80;;;12.10;63.70;;;;;;5061452;28;20048;-61
2022/01/30 10:48:20;;;;;;;43.35;9.43;;;12.20;57.90;;;;;;5045067;28;20110;-60
2022/01/30 10:50:48;;;;;;;29.25;8.88;;;12.30;58.00;;;;;;5052784;28;20407;-60
2022/01/30 10:53:18;;;;;;;37.50;9.50;;;12.30;61.30;;;;;;4971513;28;20043;-61
2022/01/30 10:55:46;;;;;;;30.92;8.93;;;12.50;61.50;;;;;;4999474;28;20056;-61
2022/01/30 10:58:14;;;;;;;36.03;9.27;;;12.50;61.90;;;;;;5063010;28;20052;-61
2022/01/30 11:00:51;;;;;;;34.28;9.40;;;11.70;59.90;;;;;;5008198;28;20104;-46
2022/01/30 11:03:50;;;;;;;32.53;8.18;;;10.90;62.40;;;;;;4960544;28;20123;-46
2022/01/30 11:06:16;;;;;;;42.88;9.52;;;10.20;66.70;;;;;;4943792;28;20055;-61
2022/01/30 11:08:47;;;;;;;35.63;8.93;;;10.00;82.30;;;;;;4958310;28;20138;-61
2022/01/30 11:13:58;;;;;;;37.03;9.60;;;9.50;95.60;;;;;;5062924;28;20071;-61
2022/01/30 11:19:13;;;;;;;47.67;18.55;;;8.80;99.60;;;;;;4941293;28;20311;-48
2022/01/30 11:21:40;;;;;;;49.03;10.82;;;9.00;99.90;;;;;;4975352;28;20062;-48
2022/01/30 11:24:08;;;;;;;37.72;9.85;;;9.60;99.90;;;;;;4943943;28;20345;-46
2022/01/30 11:26:35;;;;;;;29.63;9.80;;;10.00;95.30;;;;;;4972929;28;20054;-46
2022/01/30 11:29:01;;;;;;;41.35;9.68;;;9.90;88.60;;;;;;5001846;28;20455;-50
2022/01/30 11:31:28;;;;;;;36.17;11.63;;;10.10;86.80;;;;;;4963511;28;20046;-50
2022/01/30 11:33:56;;;;;;;40.97;9.40;;;10.60;80.20;;;;;;4962971;28;20047;-47
2022/01/30 11:36:23;;;;;;;34.10;9.07;;;11.50;68.60;;;;;;4978742;28;20054;-48
2022/01/30 11:38:50;;;;;;;28.92;7.43;;;12.30;65.80;;;;;;4973827;28;20594;-48
2022/01/30 11:41:18;;;;;;;32.90;7.97;;;12.60;61.30;;;;;;4964168;28;20054;-49
2022/01/30 11:44:18;;;;;;;31.73;8.77;;;12.70;58.30;;;;;;4969292;28;20599;-49
2022/01/30 11:46:58;;;;;;;26.13;8.38;;;13.00;53.70;;;;;;4945943;28;20054;-48
2022/01/30 11:49:48;;;;;;;27.45;8.40;;;13.70;53.00;;;;;;4956585;28;20518;-50
2022/01/30 11:52:17;;;;;;;27.70;8.88;;;13.40;50.40;;;;;;4963878;28;20058;-52
2022/01/30 11:54:45;;;;;;;26.45;7.25;;;13.50;53.50;;;;;;5061847;28;20695;-51
2022/01/30 11:57:20;;;;;;;30.17;7.38;;;13.60;50.60;;;;;;5066891;28;20087;-50
2022/01/30 11:59:49;;;;;;;31.65;9.27;;;12.60;50.40;;;;;;5046165;28;20055;-50
2022/01/30 12:02:35;;;;;;;30.13;8.68;;;12.00;54.40;;;;;;4963207;28;20072;-49
2022/01/30 12:05:07;;;;;;;30.42;8.20;;;10.90;54.70;;;;;;4961880;28;20143;-53
2022/01/30 12:07:33;;;;;;;;;;;10.10;56.30;;;;;;4987346;28;20056;-48
2022/01/30 12:10:19;;;;;;;29.42;6.97;;;9.90;58.00;;;;;;5062486;28;19921;-47
2022/01/30 12:12:54;;;;;;;26.67;7.60;;;10.60;57.30;;;;;;5041533;28;20082;-62
2022/01/30 12:15:44;;;;;;;32.50;7.35;;;11.20;56.20;;;;;;4993572;28;20519;-62
2022/01/30 12:18:11;;;;;;;28.85;6.53;;;11.60;54.60;;;;;;4978981;28;20054;-62
2022/01/30 12:20:56;;;;;;;35.72;13.48;;;11.60;53.20;;;;;;4998613;28;20055;-62
2022/01/30 12:23:26;;;;;;;32.45;10.00;;;11.80;53.00;;;;;;5030292;28;20052;-62
2022/01/30 12:26:03;;;;;;;34.90;8.70;;;12.10;54.10;;;;;;4976607;28;20054;-64
2022/01/30 12:28:43;;;;;;;26.27;7.80;;;12.60;53.40;;;;;;4963256;28;20054;-62
2022/01/30 12:31:25;;;;;;;25.80;7.28;;;11.80;52.30;;;;;;4961642;28;20057;-62
2022/01/30 12:34:02;;;;;;;28.75;6.60;;;12.00;52.90;;;;;;4957791;28;20043;-62
2022/01/30 12:36:30;;;;;;;26.65;7.13;;;12.60;51.40;;;;;;4979022;28;20040;-62
2022/01/30 12:39:21;;;;;;;27.02;6.25;;;12.70;52.70;;;;;;5023525;28;20105;-62
2022/01/30 12:41:51;;;;;;;24.10;6.40;;;12.10;52.00;;;;;;4999855;28;20066;-62
2022/01/30 12:44:20;;;;;;;29.02;7.07;;;12.00;52.40;;;;;;4947139;28;20142;-62
2022/01/30 12:46:50;;;;;;;25.95;7.05;;;12.10;53.10;;;;;;5030443;28;20127;-62
2022/01/30 12:49:18;;;;;;;25.58;6.82;;;11.80;53.10;;;;;;4976259;28;20054;-62
2022/01/30 12:51:50;;;;;;;28.52;6.22;;;12.10;52.60;;;;;;4970483;28;20104;-62
2022/01/30 12:54:19;;;;;;;24.48;6.35;;;11.80;52.60;;;;;;4961558;28;20419;-62
2022/01/30 12:56:47;;;;;;;27.65;7.07;;;11.80;53.10;;;;;;4961734;28;20101;-62
2022/01/30 12:59:14;;;;;;;22.15;6.13;;;11.60;52.90;;;;;;4963123;28;20051;-62
2022/01/30 13:01:43;;;;;;;26.15;6.72;;;11.30;54.00;;;;;;5003047;28;20126;-62
2022/01/30 13:04:14;;;;;;;25.70;7.55;;;10.70;54.50;;;;;;4948813;28;20052;-61
2022/01/30 13:06:49;;;;;;;35.33;7.82;;;10.60;56.40;;;;;;4974720;28;20522;-62
2022/01/30 13:09:21;;;;;;;31.92;7.85;;;10.40;57.80;;;;;;4939385;28;20192;-62
2022/01/30 13:11:47;;;;;;;31.05;6.88;;;11.00;58.00;;;;;;4982785;28;20490;-62
2022/01/30 13:14:13;;;;;;;23.92;7.90;;;11.50;56.70;;;;;;4942144;28;20059;-61
2022/01/30 13:16:41;;;;;;;32.38;7.35;;;11.30;55.70;;;;;;4954690;28;20089;-62
2022/01/30 13:19:09;;;;;;;29.25;7.10;;;11.20;56.90;;;;;;4948851;28;20051;-62
2022/01/30 13:21:37;;;;;;;25.95;6.47;;;11.40;56.30;;;;;;5004203;28;20042;-62
2022/01/30 13:24:05;;;;;;;32.65;6.88;;;11.30;56.30;;;;;;4965388;28;20050;-62
2022/01/30 13:26:37;;;;;;;33.13;7.38;;;11.00;56.70;;;;;;4973500;28;20046;-62
2022/01/30 13:29:10;;;;;;;38.15;9.02;;;10.30;57.40;;;;;;5040619;28;20048;-62
2022/01/30 13:31:37;;;;;;;34.35;7.63;;;9.80;59.50;;;;;;4980075;28;20051;-47
2022/01/30 13:34:15;;;;;;;34.20;8.93;;;9.60;60.80;;;;;;4967557;28;20050;-47
2022/01/30 13:36:43;;;;;;;25.50;6.32;;;9.80;62.70;;;;;;4978861;28;20131;-47
2022/01/30 13:39:14;;;;;;;28.88;7.13;;;9.40;58.10;;;;;;5027059;28;20057;-47
2022/01/30 13:41:51;;;;;;;31.45;7.07;;;9.40;59.00;;;;;;4961149;28;20512;-47
2022/01/30 13:44:25;;;;;;;27.92;7.32;;;9.30;59.20;;;;;;4982119;28;20046;-46
2022/01/30 13:47:00;;;;;;;26.17;7.07;;;9.00;60.10;;;;;;4964832;28;20505;-48
2022/01/30 13:49:26;;;;;;;25.95;6.88;;;8.80;59.80;;;;;;4969751;28;20533;-47
2022/01/30 13:52:07;;;;;;;24.38;7.32;;;8.80;60.40;;;;;;4933867;28;20119;-49
2022/01/30 13:54:33;;;;;;;25.58;6.53;;;8.80;59.50;;;;;;4967254;28;20473;-47
2022/01/30 13:57:00;;;;;;;28.20;6.82;;;9.10;58.90;;;;;;4978543;28;20048;-45
2022/01/30 13:59:28;;;;;;;29.00;7.22;;;9.30;57.00;;;;;;5003889;28;20524;-48
2022/01/30 14:01:59;;;;;;;26.92;6.93;;;9.40;58.40;;;;;;4979535;28;20370;-47